createdAt,value
2024-02-01T00:00:32.696Z,1029.48
2024-02-01T00:01:32.658Z,1029.52
2024-02-01T00:02:32.789Z,1029.5
2024-02-01T00:03:32.638Z,1029.5
2024-02-01T00:04:32.638Z,1029.5
2024-02-01T00:05:32.717Z,1029.47
2024-02-01T00:06:32.776Z,1029.46
2024-02-01T00:07:32.634Z,1029.44
2024-02-01T00:08:32.662Z,1029.49
2024-02-01T00:09:32.642Z,1029.49
2024-02-01T00:10:32.660Z,1029.45
2024-02-01T00:11:32.673Z,1029.4
2024-02-01T00:12:32.657Z,1029.44
2024-02-01T00:13:32.668Z,1029.49
2024-02-01T00:14:32.758Z,1029.47
2024-02-01T00:15:32.662Z,1029.44
2024-02-01T00:16:32.610Z,1029.39
2024-02-01T00:17:32.725Z,1029.43
2024-02-01T00:18:32.714Z,1029.41
2024-02-01T00:19:32.724Z,1029.4
2024-02-01T00:20:32.680Z,1029.41
2024-02-01T00:21:32.628Z,1029.36
2024-02-01T00:22:34.497Z,1029.39
2024-02-01T00:23:32.668Z,1029.39
2024-02-01T00:24:32.616Z,1029.38
2024-02-01T00:25:32.624Z,1029.37
2024-02-01T00:26:32.663Z,1029.34
2024-02-01T00:27:32.668Z,1029.32
2024-02-01T00:28:32.634Z,1029.27
2024-02-01T00:29:32.651Z,1029.3
2024-02-01T00:30:32.668Z,1029.31
2024-02-01T00:31:32.710Z,1029.29
2024-02-01T00:32:32.720Z,1029.26
2024-02-01T00:33:33.023Z,1029.24
2024-02-01T00:34:32.679Z,1029.28
2024-02-01T00:35:32.683Z,1029.27
2024-02-01T00:36:32.665Z,1029.28
2024-02-01T00:37:32.672Z,1029.26
2024-02-01T00:38:32.672Z,1029.25
2024-02-01T00:39:32.646Z,1029.24
2024-02-01T00:40:32.655Z,1029.21
2024-02-01T00:41:32.722Z,1029.22
2024-02-01T00:42:32.659Z,1029.21
2024-02-01T00:43:32.647Z,1029.17
2024-02-01T00:44:32.665Z,1029.2
2024-02-01T00:45:32.677Z,1029.13
2024-02-01T00:46:32.657Z,1029.19
2024-02-01T00:47:32.808Z,1029.21
2024-02-01T00:48:32.911Z,1029.21
2024-02-01T00:50:32.650Z,1029.2
2024-02-01T00:51:32.649Z,1029.23
2024-02-01T00:52:32.650Z,1029.16
2024-02-01T00:53:32.728Z,1029.18
2024-02-01T00:54:32.649Z,1029.13
2024-02-01T00:55:32.637Z,1029.12
2024-02-01T00:56:32.639Z,1029.09
2024-02-01T00:57:32.649Z,1029.06
2024-02-01T00:58:32.661Z,1029.08
2024-02-01T00:59:32.729Z,1029.04
2024-02-01T01:00:32.794Z,1029.05
2024-02-01T01:01:32.767Z,1029.07
2024-02-01T01:02:32.671Z,1029.09
2024-02-01T01:03:32.648Z,1029.03
2024-02-01T01:04:32.684Z,1029
2024-02-01T01:05:32.689Z,1028.99
2024-02-01T01:06:32.649Z,1028.94
2024-02-01T01:07:32.651Z,1028.98
2024-02-01T01:08:32.679Z,1028.96
2024-02-01T01:09:32.695Z,1028.95
2024-02-01T01:10:32.653Z,1028.91
2024-02-01T01:11:32.649Z,1028.88
2024-02-01T01:12:32.617Z,1028.84
2024-02-01T01:13:32.692Z,1028.79
2024-02-01T01:14:32.648Z,1028.83
2024-02-01T01:15:32.650Z,1028.82
2024-02-01T01:16:32.592Z,1028.8
2024-02-01T01:17:32.693Z,1028.76
2024-02-01T01:18:32.757Z,1028.73
2024-02-01T01:19:32.680Z,1028.71
2024-02-01T01:20:32.634Z,1028.7
2024-02-01T01:21:32.598Z,1028.65
2024-02-01T01:22:32.648Z,1028.63
2024-02-01T01:23:32.685Z,1028.62
2024-02-01T01:24:32.655Z,1028.51
2024-02-01T01:25:32.629Z,1028.5
2024-02-01T01:26:32.666Z,1028.5
2024-02-01T01:27:32.644Z,1028.5
2024-02-01T01:28:32.643Z,1028.47
2024-02-01T01:29:32.694Z,1028.51
2024-02-01T01:30:32.651Z,1028.49
2024-02-01T01:31:32.657Z,1028.41
2024-02-01T01:32:32.696Z,1028.36
2024-02-01T01:33:32.800Z,1028.34
2024-02-01T01:34:32.685Z,1028.31
2024-02-01T01:35:32.664Z,1028.34
2024-02-01T01:36:32.674Z,1028.31
2024-02-01T01:37:32.674Z,1028.26
2024-02-01T01:38:32.677Z,1028.27
2024-02-01T01:39:32.660Z,1028.24
2024-02-01T01:40:32.652Z,1028.24
2024-02-01T01:41:32.661Z,1028.16
2024-02-01T01:42:32.672Z,1028.13
2024-02-01T01:43:32.645Z,1028.11
2024-02-01T01:44:32.700Z,1028.13
2024-02-01T01:45:32.664Z,1028.13
2024-02-01T01:46:32.642Z,1028.09
2024-02-01T01:47:32.754Z,1028.11
2024-02-01T01:48:32.729Z,1028.13
2024-02-01T01:49:32.686Z,1028.17
2024-02-01T01:50:32.682Z,1028.13
2024-02-01T01:51:32.638Z,1028.13
2024-02-01T01:52:32.660Z,1028.1
2024-02-01T01:53:32.697Z,1028.1
2024-02-01T01:54:32.649Z,1028.01
2024-02-01T01:55:32.614Z,1027.98
2024-02-01T01:56:32.649Z,1027.98
2024-02-01T01:57:32.613Z,1027.94
2024-02-01T01:58:32.650Z,1027.96
2024-02-01T01:59:32.659Z,1027.97
2024-02-01T02:00:32.643Z,1027.96
2024-02-01T02:01:32.649Z,1027.94
2024-02-01T02:02:32.675Z,1027.94
2024-02-01T02:03:32.723Z,1027.94
2024-02-01T02:04:32.659Z,1027.93
2024-02-01T02:05:32.740Z,1027.95
2024-02-01T02:06:32.697Z,1027.89
2024-02-01T02:07:32.657Z,1027.88
2024-02-01T02:08:32.648Z,1027.85
2024-02-01T02:09:32.665Z,1027.88
2024-02-01T02:10:33.752Z,1027.92
2024-02-01T02:11:32.628Z,1027.97
2024-02-01T02:12:32.642Z,1027.97
2024-02-01T02:13:32.649Z,1027.97
2024-02-01T02:14:32.722Z,1027.92
2024-02-01T02:15:32.624Z,1027.82
2024-02-01T02:16:32.715Z,1027.83
2024-02-01T02:17:32.718Z,1027.8
2024-02-01T02:18:32.756Z,1027.74
2024-02-01T02:19:32.671Z,1027.76
2024-02-01T02:20:32.656Z,1027.77
2024-02-01T02:21:32.661Z,1027.7
2024-02-01T02:22:32.650Z,1027.72
2024-02-01T02:23:32.662Z,1027.67
2024-02-01T02:24:32.654Z,1027.63
2024-02-01T02:25:32.631Z,1027.61
2024-02-01T02:26:32.669Z,1027.64
2024-02-01T02:27:32.646Z,1027.67
2024-02-01T02:28:32.629Z,1027.72
2024-02-01T02:29:32.687Z,1027.74
2024-02-01T02:30:32.652Z,1027.71
2024-02-01T02:31:32.643Z,1027.64
2024-02-01T02:32:32.704Z,1027.62
2024-02-01T02:33:32.852Z,1027.66
2024-02-01T02:34:32.703Z,1027.64
2024-02-01T02:35:32.794Z,1027.62
2024-02-01T02:36:32.653Z,1027.61
2024-02-01T02:37:32.654Z,1027.62
2024-02-01T02:38:32.665Z,1027.6
2024-02-01T02:39:32.577Z,1027.57
2024-02-01T02:40:32.662Z,1027.59
2024-02-01T02:41:33.421Z,1027.53
2024-02-01T02:42:32.638Z,1027.51
2024-02-01T02:43:32.660Z,1027.55
2024-02-01T02:44:32.674Z,1027.55
2024-02-01T02:45:32.663Z,1027.55
2024-02-01T02:46:32.631Z,1027.52
2024-02-01T02:47:32.774Z,1027.51
2024-02-01T02:48:32.709Z,1027.49
2024-02-01T02:49:32.703Z,1027.44
2024-02-01T02:50:32.638Z,1027.45
2024-02-01T02:51:32.647Z,1027.48
2024-02-01T02:52:32.635Z,1027.44
2024-02-01T02:53:32.697Z,1027.41
2024-02-01T02:54:32.616Z,1027.41
2024-02-01T02:55:32.648Z,1027.44
2024-02-01T02:56:32.661Z,1027.42
2024-02-01T02:57:32.648Z,1027.37
2024-02-01T02:58:32.628Z,1027.38
2024-02-01T02:59:32.706Z,1027.34
2024-02-01T03:00:32.659Z,1027.36
2024-02-01T03:01:32.719Z,1027.35
2024-02-01T03:02:32.651Z,1027.35
2024-02-01T03:03:32.651Z,1027.29
2024-02-01T03:04:32.657Z,1027.28
2024-02-01T03:05:32.636Z,1027.29
2024-02-01T03:06:32.714Z,1027.28
2024-02-01T03:07:32.662Z,1027.27
2024-02-01T03:08:32.697Z,1027.3
2024-02-01T03:09:34.562Z,1027.3
2024-02-01T03:10:32.650Z,1027.27
2024-02-01T03:11:32.643Z,1027.2
2024-02-01T03:12:32.661Z,1027.2
2024-02-01T03:13:32.653Z,1027.21
2024-02-01T03:14:32.624Z,1027.22
2024-02-01T03:15:32.658Z,1027.19
2024-02-01T03:16:32.673Z,1027.16
2024-02-01T03:17:32.745Z,1027.13
2024-02-01T03:18:32.746Z,1027.15
2024-02-01T03:19:32.771Z,1027.07
2024-02-01T03:20:32.728Z,1027.05
2024-02-01T03:21:32.640Z,1027.05
2024-02-01T03:22:32.656Z,1027.02
2024-02-01T03:23:32.711Z,1027.04
2024-02-01T03:24:32.623Z,1027.04
2024-02-01T03:25:32.760Z,1027.09
2024-02-01T03:26:32.645Z,1027.07
2024-02-01T03:27:32.638Z,1027.08
2024-02-01T03:28:32.641Z,1027.06
2024-02-01T03:29:32.657Z,1027.04
2024-02-01T03:30:32.650Z,1027.01
2024-02-01T03:31:32.639Z,1027.06
2024-02-01T03:32:32.682Z,1027.04
2024-02-01T03:33:32.760Z,1027.04
2024-02-01T03:34:32.676Z,1027.03
2024-02-01T03:35:32.675Z,1027.07
2024-02-01T03:36:32.615Z,1027.04
2024-02-01T03:37:32.587Z,1027.02
2024-02-01T03:38:32.685Z,1027.08
2024-02-01T03:39:32.640Z,1027.06
2024-02-01T03:40:32.711Z,1027.05
2024-02-01T03:41:32.783Z,1027.02
2024-02-01T03:42:32.630Z,1027.02
2024-02-01T03:43:32.663Z,1026.95
2024-02-01T03:44:32.665Z,1026.98
2024-02-01T03:45:32.656Z,1026.97
2024-02-01T03:46:32.647Z,1026.94
2024-02-01T03:47:32.664Z,1026.92
2024-02-01T03:48:32.727Z,1026.88
2024-02-01T03:49:32.765Z,1026.86
2024-02-01T03:50:32.652Z,1026.85
2024-02-01T03:51:32.660Z,1026.82
2024-02-01T03:52:32.615Z,1026.83
2024-02-01T03:53:32.740Z,1026.79
2024-02-01T03:54:32.651Z,1026.75
2024-02-01T03:55:32.637Z,1026.73
2024-02-01T03:56:32.667Z,1026.7
2024-02-01T03:57:32.625Z,1026.67
2024-02-01T03:58:32.638Z,1026.63
2024-02-01T03:59:32.746Z,1026.63
2024-02-01T04:00:32.697Z,1026.69
2024-02-01T04:01:32.658Z,1026.64
2024-02-01T04:02:32.655Z,1026.6
2024-02-01T04:03:32.650Z,1026.58
2024-02-01T04:04:32.782Z,1026.57
2024-02-01T04:05:32.719Z,1026.56
2024-02-01T04:06:32.757Z,1026.59
2024-02-01T04:07:32.625Z,1026.6
2024-02-01T04:08:32.669Z,1026.69
2024-02-01T04:09:32.670Z,1026.67
2024-02-01T04:10:32.630Z,1026.61
2024-02-01T04:11:32.791Z,1026.6
2024-02-01T04:12:32.615Z,1026.6
2024-02-01T04:13:32.647Z,1026.58
2024-02-01T04:14:32.672Z,1026.57
2024-02-01T04:15:32.650Z,1026.59
2024-02-01T04:16:32.658Z,1026.53
2024-02-01T04:17:32.779Z,1026.54
2024-02-01T04:18:32.751Z,1026.58
2024-02-01T04:19:32.720Z,1026.59
2024-02-01T04:20:32.718Z,1026.65
2024-02-01T04:21:32.626Z,1026.71
2024-02-01T04:22:32.661Z,1026.7
2024-02-01T04:23:32.661Z,1026.67
2024-02-01T04:24:32.660Z,1026.65
2024-02-01T04:25:32.667Z,1026.7
2024-02-01T04:26:32.644Z,1026.69
2024-02-01T04:27:32.640Z,1026.78
2024-02-01T04:28:32.639Z,1026.79
2024-02-01T04:29:32.701Z,1026.78
2024-02-01T04:30:32.631Z,1026.82
2024-02-01T04:31:32.620Z,1026.82
2024-02-01T04:32:32.800Z,1026.84
2024-02-01T04:33:32.746Z,1026.82
2024-02-01T04:34:32.657Z,1026.79
2024-02-01T04:35:32.689Z,1026.75
2024-02-01T04:36:32.641Z,1026.73
2024-02-01T04:37:32.632Z,1026.73
2024-02-01T04:38:32.678Z,1026.7
2024-02-01T04:39:32.653Z,1026.69
2024-02-01T04:40:32.659Z,1026.64
2024-02-01T04:41:32.680Z,1026.59
2024-02-01T04:42:32.672Z,1026.61
2024-02-01T04:43:32.660Z,1026.63
2024-02-01T04:44:32.668Z,1026.67
2024-02-01T04:45:32.664Z,1026.66
2024-02-01T04:46:32.622Z,1026.71
2024-02-01T04:47:32.680Z,1026.71
2024-02-01T04:48:32.757Z,1026.72
2024-02-01T04:49:32.820Z,1026.74
2024-02-01T04:50:32.679Z,1026.81
2024-02-01T04:51:32.640Z,1026.81
2024-02-01T04:52:32.649Z,1026.83
2024-02-01T04:53:32.723Z,1026.81
2024-02-01T04:54:32.650Z,1026.77
2024-02-01T04:55:35.316Z,1026.79
2024-02-01T04:56:32.627Z,1026.74
2024-02-01T04:57:32.649Z,1026.76
2024-02-01T04:58:32.639Z,1026.71
2024-02-01T04:59:32.648Z,1026.7
2024-02-01T05:00:32.668Z,1026.7
2024-02-01T05:01:32.795Z,1026.72
2024-02-01T05:02:32.695Z,1026.76
2024-02-01T05:03:32.734Z,1026.79
2024-02-01T05:04:32.689Z,1026.81
2024-02-01T05:05:32.811Z,1026.79
2024-02-01T05:06:32.840Z,1026.81
2024-02-01T05:07:32.604Z,1026.86
2024-02-01T05:08:32.722Z,1026.88
2024-02-01T05:09:32.665Z,1026.94
2024-02-01T05:10:32.658Z,1026.89
2024-02-01T05:11:32.724Z,1026.94
2024-02-01T05:12:32.647Z,1026.98
2024-02-01T05:13:32.651Z,1026.95
2024-02-01T05:14:32.752Z,1026.98
2024-02-01T05:15:32.655Z,1027
2024-02-01T05:16:32.639Z,1027
2024-02-01T05:17:32.761Z,1027.02
2024-02-01T05:18:32.796Z,1027.05
2024-02-01T05:19:32.795Z,1027.06
2024-02-01T05:20:32.812Z,1027.04
2024-02-01T05:21:32.651Z,1027.11
2024-02-01T05:22:32.641Z,1027.06
2024-02-01T05:23:32.743Z,1027.01
2024-02-01T05:24:32.667Z,1026.99
2024-02-01T05:25:32.633Z,1026.95
2024-02-01T05:26:32.710Z,1026.97
2024-02-01T05:27:32.667Z,1026.98
2024-02-01T05:28:32.649Z,1026.93
2024-02-01T05:29:32.733Z,1026.97
2024-02-01T05:30:32.706Z,1026.98
2024-02-01T05:31:32.657Z,1026.91
2024-02-01T05:32:32.687Z,1027
2024-02-01T05:33:32.764Z,1027.03
2024-02-01T05:34:32.727Z,1027.03
2024-02-01T05:35:32.675Z,1027.05
2024-02-01T05:36:32.663Z,1027.06
2024-02-01T05:37:32.658Z,1027.09
2024-02-01T05:38:32.612Z,1027.04
2024-02-01T05:39:32.679Z,1027.02
2024-02-01T05:40:32.690Z,1027.02
2024-02-01T05:41:32.662Z,1026.93
2024-02-01T05:42:32.673Z,1026.94
2024-02-01T05:43:32.644Z,1026.9
2024-02-01T05:44:32.698Z,1026.95
2024-02-01T05:45:32.731Z,1026.89
2024-02-01T05:46:32.606Z,1026.91
2024-02-01T05:47:32.657Z,1026.86
2024-02-01T05:48:32.795Z,1026.81
2024-02-01T05:49:32.839Z,1026.86
2024-02-01T05:50:32.659Z,1026.89
2024-02-01T05:51:32.695Z,1026.89
2024-02-01T05:52:32.641Z,1026.86
2024-02-01T05:53:32.679Z,1026.82
2024-02-01T05:54:32.648Z,1026.76
2024-02-01T05:55:32.671Z,1026.7
2024-02-01T05:56:32.636Z,1026.74
2024-02-01T05:57:32.638Z,1026.79
2024-02-01T05:58:32.661Z,1026.75
2024-02-01T05:59:32.663Z,1026.77
2024-02-01T06:00:32.795Z,1026.79
2024-02-01T06:01:32.664Z,1026.79
2024-02-01T06:02:32.642Z,1026.8
2024-02-01T06:03:32.710Z,1026.83
2024-02-01T06:04:32.683Z,1026.8
2024-02-01T06:05:32.629Z,1026.83
2024-02-01T06:06:32.846Z,1026.8
2024-02-01T06:07:32.693Z,1026.73
2024-02-01T06:08:32.638Z,1026.69
2024-02-01T06:09:32.639Z,1026.72
2024-02-01T06:10:32.667Z,1026.76
2024-02-01T06:11:32.658Z,1026.75
2024-02-01T06:12:35.755Z,1026.76
2024-02-01T06:13:32.634Z,1026.84
2024-02-01T06:14:32.659Z,1026.86
2024-02-01T06:15:32.650Z,1026.82
2024-02-01T06:16:32.639Z,1026.84
2024-02-01T06:17:32.678Z,1026.84
2024-02-01T06:18:32.747Z,1026.85
2024-02-01T06:19:32.719Z,1026.84
2024-02-01T06:20:32.640Z,1026.76
2024-02-01T06:21:32.651Z,1026.64
2024-02-01T06:22:32.679Z,1026.58
2024-02-01T06:23:32.654Z,1026.59
2024-02-01T06:24:32.648Z,1026.54
2024-02-01T06:25:32.689Z,1026.51
2024-02-01T06:26:32.635Z,1026.55
2024-02-01T06:27:32.644Z,1026.57
2024-02-01T06:28:32.631Z,1026.6
2024-02-01T06:29:32.651Z,1026.59
2024-02-01T06:30:32.691Z,1026.6
2024-02-01T06:31:32.651Z,1026.56
2024-02-01T06:32:32.639Z,1026.45
2024-02-01T06:33:32.750Z,1026.47
2024-02-01T06:34:32.667Z,1026.51
2024-02-01T06:35:32.651Z,1026.58
2024-02-01T06:36:32.708Z,1026.56
2024-02-01T06:37:32.684Z,1026.56
2024-02-01T06:38:32.636Z,1026.49
2024-02-01T06:39:32.688Z,1026.48
2024-02-01T06:40:32.673Z,1026.55
2024-02-01T06:41:32.657Z,1026.56
2024-02-01T06:42:32.712Z,1026.56
2024-02-01T06:43:32.648Z,1026.55
2024-02-01T06:44:32.697Z,1026.55
2024-02-01T06:45:32.729Z,1026.56
2024-02-01T06:46:32.725Z,1026.58
2024-02-01T06:47:32.693Z,1026.58
2024-02-01T06:48:32.709Z,1026.58
2024-02-01T06:49:35.830Z,1026.61
2024-02-01T06:50:32.700Z,1026.62
2024-02-01T06:51:32.689Z,1026.66
2024-02-01T06:52:32.666Z,1026.62
2024-02-01T06:53:32.659Z,1026.61
2024-02-01T06:54:32.748Z,1026.62
2024-02-01T06:55:32.663Z,1026.57
2024-02-01T06:56:32.660Z,1026.61
2024-02-01T06:57:32.694Z,1026.61
2024-02-01T06:58:32.741Z,1026.64
2024-02-01T06:59:33.693Z,1026.71
2024-02-01T07:00:32.707Z,1026.7
2024-02-01T07:01:32.786Z,1026.74
2024-02-01T07:02:32.658Z,1026.69
2024-02-01T07:03:32.792Z,1026.67
2024-02-01T07:04:32.791Z,1026.67
2024-02-01T07:05:32.740Z,1026.74
2024-02-01T07:06:32.711Z,1026.78
2024-02-01T07:07:32.671Z,1026.75
2024-02-01T07:08:32.677Z,1026.76
2024-02-01T07:09:32.697Z,1026.76
2024-02-01T07:10:32.676Z,1026.76
2024-02-01T07:11:32.647Z,1026.81
2024-02-01T07:12:32.709Z,1026.83
2024-02-01T07:13:32.640Z,1026.8
2024-02-01T07:14:32.660Z,1026.78
2024-02-01T07:15:33.680Z,1026.7
2024-02-01T07:16:32.644Z,1026.69
2024-02-01T07:17:32.722Z,1026.7
2024-02-01T07:18:32.897Z,1026.69
2024-02-01T07:19:32.745Z,1026.71
2024-02-01T07:20:32.673Z,1026.69
2024-02-01T07:21:32.791Z,1026.66
2024-02-01T07:22:32.638Z,1026.7
2024-02-01T07:23:32.656Z,1026.69
2024-02-01T07:24:32.756Z,1026.66
2024-02-01T07:25:32.639Z,1026.69
2024-02-01T07:26:32.645Z,1026.66
2024-02-01T07:27:32.740Z,1026.64
2024-02-01T07:28:32.631Z,1026.67
2024-02-01T07:29:32.632Z,1026.69
2024-02-01T07:30:32.660Z,1026.63
2024-02-01T07:31:32.640Z,1026.58
2024-02-01T07:32:32.709Z,1026.55
2024-02-01T07:33:32.706Z,1026.49
2024-02-01T07:34:32.664Z,1026.52
2024-02-01T07:35:32.642Z,1026.51
2024-02-01T07:36:32.640Z,1026.53
2024-02-01T07:37:32.658Z,1026.53
2024-02-01T07:38:32.656Z,1026.56
2024-02-01T07:39:32.627Z,1026.49
2024-02-01T07:40:32.935Z,1026.48
2024-02-01T07:41:32.663Z,1026.44
2024-02-01T07:42:32.638Z,1026.4
2024-02-01T07:43:32.652Z,1026.4
2024-02-01T07:44:32.653Z,1026.45
2024-02-01T07:45:32.640Z,1026.46
2024-02-01T07:46:32.958Z,1026.45
2024-02-01T07:47:32.733Z,1026.45
2024-02-01T07:48:32.757Z,1026.44
2024-02-01T07:49:32.742Z,1026.42
2024-02-01T07:50:32.644Z,1026.39
2024-02-01T07:51:32.654Z,1026.45
2024-02-01T07:52:32.653Z,1026.46
2024-02-01T07:53:32.656Z,1026.45
2024-02-01T07:54:32.614Z,1026.43
2024-02-01T07:55:32.649Z,1026.43
2024-02-01T07:56:32.657Z,1026.38
2024-02-01T07:57:32.628Z,1026.37
2024-02-01T07:58:32.655Z,1026.35
2024-02-01T07:59:32.654Z,1026.35
2024-02-01T08:00:32.679Z,1026.35
2024-02-01T08:01:32.657Z,1026.34
2024-02-01T08:02:32.663Z,1026.36
2024-02-01T08:03:32.763Z,1026.35
2024-02-01T08:04:32.704Z,1026.37
2024-02-01T08:05:32.678Z,1026.35
2024-02-01T08:06:32.832Z,1026.35
2024-02-01T08:07:32.657Z,1026.3
2024-02-01T08:08:32.634Z,1026.31
2024-02-01T08:09:32.648Z,1026.33
2024-02-01T08:10:32.635Z,1026.37
2024-02-01T08:11:32.614Z,1026.36
2024-02-01T08:12:32.654Z,1026.35
2024-02-01T08:13:32.660Z,1026.34
2024-02-01T08:14:32.660Z,1026.27
2024-02-01T08:15:32.653Z,1026.26
2024-02-01T08:16:32.661Z,1026.26
2024-02-01T08:17:32.796Z,1026.25
2024-02-01T08:18:32.762Z,1026.29
2024-02-01T08:19:40.050Z,1026.28
2024-02-01T08:20:32.622Z,1026.34
2024-02-01T08:21:32.656Z,1026.32
2024-02-01T08:22:32.662Z,1026.3
2024-02-01T08:23:32.625Z,1026.34
2024-02-01T08:24:32.659Z,1026.29
2024-02-01T08:25:32.654Z,1026.27
2024-02-01T08:26:32.711Z,1026.27
2024-02-01T08:27:32.621Z,1026.25
2024-02-01T08:28:32.621Z,1026.21
2024-02-01T08:29:32.634Z,1026.25
2024-02-01T08:30:32.692Z,1026.26
2024-02-01T08:31:32.628Z,1026.25
2024-02-01T08:32:32.699Z,1026.28
2024-02-01T08:33:32.712Z,1026.28
2024-02-01T08:34:32.708Z,1026.3
2024-02-01T08:35:32.610Z,1026.3
2024-02-01T08:36:32.684Z,1026.37
2024-02-01T08:37:32.640Z,1026.39
2024-02-01T08:38:32.652Z,1026.38
2024-02-01T08:39:32.654Z,1026.43
2024-02-01T08:40:32.667Z,1026.43
2024-02-01T08:41:32.661Z,1026.52
2024-02-01T08:42:34.489Z,1026.49
2024-02-01T08:43:32.627Z,1026.52
2024-02-01T08:44:32.654Z,1026.5
2024-02-01T08:45:32.664Z,1026.51
2024-02-01T08:46:32.606Z,1026.52
2024-02-01T08:47:32.633Z,1026.48
2024-02-01T08:48:32.720Z,1026.46
2024-02-01T08:49:32.760Z,1026.49
2024-02-01T08:50:32.663Z,1026.44
2024-02-01T08:51:32.679Z,1026.49
2024-02-01T08:52:32.651Z,1026.51
2024-02-01T08:53:32.631Z,1026.5
2024-02-01T08:54:32.914Z,1026.52
2024-02-01T08:55:32.680Z,1026.49
2024-02-01T08:56:32.656Z,1026.48
2024-02-01T08:57:32.644Z,1026.46
2024-02-01T08:58:32.665Z,1026.47
2024-02-01T08:59:32.638Z,1026.47
2024-02-01T09:00:32.656Z,1026.52
2024-02-01T09:01:34.976Z,1026.56
2024-02-01T09:02:32.648Z,1026.55
2024-02-01T09:03:32.656Z,1026.57
2024-02-01T09:04:32.684Z,1026.52
2024-02-01T09:05:32.764Z,1026.51
2024-02-01T09:06:32.768Z,1026.51
2024-02-01T09:07:33.065Z,1026.52
2024-02-01T09:08:32.614Z,1026.53
2024-02-01T09:09:32.650Z,1026.53
2024-02-01T09:10:32.641Z,1026.57
2024-02-01T09:11:32.650Z,1026.59
2024-02-01T09:12:32.597Z,1026.64
2024-02-01T09:13:32.651Z,1026.65
2024-02-01T09:14:32.663Z,1026.63
2024-02-01T09:15:32.875Z,1026.61
2024-02-01T09:16:32.984Z,1026.66
2024-02-01T09:17:32.654Z,1026.62
2024-02-01T09:18:32.769Z,1026.64
2024-02-01T09:19:32.732Z,1026.66
2024-02-01T09:20:32.599Z,1026.72
2024-02-01T09:21:32.699Z,1026.7
2024-02-01T09:22:32.626Z,1026.64
2024-02-01T09:23:32.662Z,1026.65
2024-02-01T09:24:32.646Z,1026.69
2024-02-01T09:25:32.625Z,1026.71
2024-02-01T09:26:32.624Z,1026.64
2024-02-01T09:27:32.756Z,1026.65
2024-02-01T09:28:32.661Z,1026.66
2024-02-01T09:29:32.665Z,1026.67
2024-02-01T09:30:32.810Z,1026.69
2024-02-01T09:31:32.626Z,1026.69
2024-02-01T09:32:32.664Z,1026.77
2024-02-01T09:33:32.820Z,1026.77
2024-02-01T09:34:32.734Z,1026.73
2024-02-01T09:35:32.645Z,1026.77
2024-02-01T09:36:32.642Z,1026.8
2024-02-01T09:37:32.665Z,1026.8
2024-02-01T09:38:32.661Z,1026.81
2024-02-01T09:39:32.643Z,1026.87
2024-02-01T09:40:32.638Z,1026.85
2024-02-01T09:41:32.678Z,1026.85
2024-02-01T09:42:32.642Z,1026.83
2024-02-01T09:43:32.665Z,1026.8
2024-02-01T09:44:32.657Z,1026.74
2024-02-01T09:45:32.639Z,1026.72
2024-02-01T09:46:32.645Z,1026.73
2024-02-01T09:47:32.683Z,1026.73
2024-02-01T09:48:32.767Z,1026.67
2024-02-01T09:49:33.342Z,1026.65
2024-02-01T09:50:32.655Z,1026.7
2024-02-01T09:51:32.651Z,1026.69
2024-02-01T09:52:32.638Z,1026.73
2024-02-01T09:53:32.663Z,1026.71
2024-02-01T09:54:32.681Z,1026.76
2024-02-01T09:55:32.633Z,1026.76
2024-02-01T09:56:32.665Z,1026.78
2024-02-01T09:57:32.635Z,1026.69
2024-02-01T09:58:32.655Z,1026.61
2024-02-01T09:59:32.655Z,1026.57
2024-02-01T10:00:32.636Z,1026.54
2024-02-01T10:01:32.705Z,1026.5
2024-02-01T10:02:32.655Z,1026.52
2024-02-01T10:03:32.748Z,1026.49
2024-02-01T10:04:32.664Z,1026.44
2024-02-01T10:05:32.658Z,1026.38
2024-02-01T10:06:32.766Z,1026.36
2024-02-01T10:07:32.644Z,1026.38
2024-02-01T10:08:32.657Z,1026.32
2024-02-01T10:09:32.614Z,1026.28
2024-02-01T10:10:32.660Z,1026.31
2024-02-01T10:11:32.679Z,1026.35
2024-02-01T10:12:32.621Z,1026.33
2024-02-01T10:13:33.185Z,1026.35
2024-02-01T10:14:32.644Z,1026.34
2024-02-01T10:15:32.797Z,1026.34
2024-02-01T10:16:32.652Z,1026.34
2024-02-01T10:17:32.667Z,1026.29
2024-02-01T10:18:32.768Z,1026.25
2024-02-01T10:19:32.759Z,1026.22
2024-02-01T10:20:32.614Z,1026.21
2024-02-01T10:21:39.798Z,1026.21
2024-02-01T10:22:32.636Z,1026.2
2024-02-01T10:23:32.662Z,1026.16
2024-02-01T10:24:32.675Z,1026.13
2024-02-01T10:25:32.634Z,1026.15
2024-02-01T10:26:32.656Z,1026.13
2024-02-01T10:27:32.717Z,1026.18
2024-02-01T10:28:32.640Z,1026.18
2024-02-01T10:29:32.598Z,1026.21
2024-02-01T10:30:32.625Z,1026.18
2024-02-01T10:31:33.044Z,1026.2
2024-02-01T10:32:32.704Z,1026.21
2024-02-01T10:33:32.929Z,1026.19
2024-02-01T10:34:32.761Z,1026.15
2024-02-01T10:35:32.655Z,1026.05
2024-02-01T10:36:32.663Z,1025.99
2024-02-01T10:37:32.648Z,1025.99
2024-02-01T10:38:32.647Z,1026
2024-02-01T10:39:32.642Z,1026.03
2024-02-01T10:40:32.673Z,1026.05
2024-02-01T10:41:32.678Z,1026.01
2024-02-01T10:42:32.620Z,1025.99
2024-02-01T10:43:32.633Z,1025.94
2024-02-01T10:44:32.652Z,1025.96
2024-02-01T10:45:32.672Z,1025.97
2024-02-01T10:46:32.650Z,1025.95
2024-02-01T10:47:32.646Z,1026.03
2024-02-01T10:48:32.763Z,1026.01
2024-02-01T10:49:32.694Z,1025.98
2024-02-01T10:50:32.661Z,1025.94
2024-02-01T10:51:32.664Z,1025.89
2024-02-01T10:52:32.641Z,1025.92
2024-02-01T10:53:32.666Z,1025.92
2024-02-01T10:54:32.732Z,1025.83
2024-02-01T10:55:32.650Z,1025.84
2024-02-01T10:56:32.645Z,1025.82
2024-02-01T10:57:32.618Z,1025.85
2024-02-01T10:58:32.623Z,1025.88
2024-02-01T10:59:32.657Z,1025.89
2024-02-01T11:00:32.655Z,1025.9
2024-02-01T11:01:32.660Z,1025.9
2024-02-01T11:02:32.657Z,1025.91
2024-02-01T11:03:34.503Z,1025.89
2024-02-01T11:04:32.651Z,1025.89
2024-02-01T11:05:32.656Z,1025.9
2024-02-01T11:06:32.735Z,1025.92
2024-02-01T11:07:32.638Z,1025.94
2024-02-01T11:08:32.643Z,1025.89
2024-02-01T11:09:35.215Z,1025.81
2024-02-01T11:10:32.656Z,1025.81
2024-02-01T11:11:32.673Z,1025.85
2024-02-01T11:12:32.665Z,1025.81
2024-02-01T11:13:32.636Z,1025.82
2024-02-01T11:14:32.687Z,1025.8
2024-02-01T11:15:32.735Z,1025.8
2024-02-01T11:16:32.616Z,1025.77
2024-02-01T11:17:32.729Z,1025.77
2024-02-01T11:18:32.762Z,1025.77
2024-02-01T11:19:36.708Z,1025.75
2024-02-01T11:20:32.740Z,1025.71
2024-02-01T11:21:32.644Z,1025.73
2024-02-01T11:22:32.654Z,1025.77
2024-02-01T11:23:32.648Z,1025.78
2024-02-01T11:24:32.651Z,1025.75
2024-02-01T11:25:32.649Z,1025.79
2024-02-01T11:26:32.630Z,1025.79
2024-02-01T11:27:32.667Z,1025.81
2024-02-01T11:28:32.672Z,1025.84
2024-02-01T11:29:32.654Z,1025.82
2024-02-01T11:30:32.727Z,1025.85
2024-02-01T11:31:42.094Z,1025.8
2024-02-01T11:32:32.675Z,1025.84
2024-02-01T11:33:32.734Z,1025.8
2024-02-01T11:34:32.737Z,1025.8
2024-02-01T11:35:32.642Z,1025.82
2024-02-01T11:36:32.657Z,1025.84
2024-02-01T11:37:32.675Z,1025.89
2024-02-01T11:38:32.688Z,1025.9
2024-02-01T11:39:32.635Z,1025.89
2024-02-01T11:40:32.612Z,1025.8
2024-02-01T11:41:32.636Z,1025.7
2024-02-01T11:42:33.866Z,1025.7
2024-02-01T11:43:32.636Z,1025.78
2024-02-01T11:44:32.654Z,1025.77
2024-02-01T11:45:32.675Z,1025.82
2024-02-01T11:46:32.638Z,1025.88
2024-02-01T11:47:32.654Z,1025.96
2024-02-01T11:48:32.783Z,1025.93
2024-02-01T11:49:32.974Z,1025.89
2024-02-01T11:50:32.656Z,1025.81
2024-02-01T11:51:32.654Z,1025.8
2024-02-01T11:52:32.645Z,1025.78
2024-02-01T11:53:32.632Z,1025.77
2024-02-01T11:54:32.633Z,1025.79
2024-02-01T11:55:32.639Z,1025.75
2024-02-01T11:56:32.649Z,1025.77
2024-02-01T11:57:32.657Z,1025.75
2024-02-01T11:58:32.980Z,1025.79
2024-02-01T11:59:32.628Z,1025.8
2024-02-01T12:00:44.445Z,1025.81
2024-02-01T12:01:32.820Z,1025.76
2024-02-01T12:02:32.679Z,1025.75
2024-02-01T12:03:32.683Z,1025.71
2024-02-01T12:04:32.703Z,1025.76
2024-02-01T12:05:32.676Z,1025.74
2024-02-01T12:06:32.657Z,1025.75
2024-02-01T12:07:32.652Z,1025.7
2024-02-01T12:08:35.263Z,1025.68
2024-02-01T12:09:32.631Z,1025.61